sensor_id;sensor_type;location;lat;lon;timestamp;temperature;humidity
23591;DHT22;11973;52.098;7.582;2023-03-01T04:45:36;-4.20;98.90
23591;DHT22;11973;52.098;7.582;2023-03-01T04:48:03;-4.20;98.90
23591;DHT22;11973;52.098;7.582;2023-03-01T04:50:29;-4.20;98.90
23591;DHT22;11973;52.098;7.582;2023-03-01T04:52:55;-4.30;98.80
23591;DHT22;11973;52.098;7.582;2023-03-01T04:55:25;-4.30;98.80
23591;DHT22;11973;52.098;7.582;2023-03-01T04:57:52;-4.30;98.80
23591;DHT22;11973;52.098;7.582;2023-03-01T05:00:18;-4.30;98.80
23591;DHT22;11973;52.098;7.582;2023-03-01T05:02:54;-4.30;98.80
23591;DHT22;11973;52.098;7.582;2023-03-01T05:07:47;-4.40;98.80
23591;DHT22;11973;52.098;7.582;2023-03-01T05:10:13;-4.40;98.70
23591;DHT22;11973;52.098;7.582;2023-03-01T05:12:38;-4.40;98.70
23591;DHT22;11973;52.098;7.582;2023-03-01T05:15:05;-4.40;98.70
23591;DHT22;11973;52.098;7.582;2023-03-01T05:17:33;-4.40;98.70
23591;DHT22;11973;52.098;7.582;2023-03-01T05:20:00;-4.40;98.80
23591;DHT22;11973;52.098;7.582;2023-03-01T05:22:26;-4.50;98.70
23591;DHT22;11973;52.098;7.582;2023-03-01T05:24:52;-4.50;98.80
23591;DHT22;11973;52.098;7.582;2023-03-01T05:27:19;-4.50;99.10
23591;DHT22;11973;52.098;7.582;2023-03-01T05:29:47;-4.50;99.10
23591;DHT22;11973;52.098;7.582;2023-03-01T05:32:13;-4.50;99.00
23591;DHT22;11973;52.098;7.582;2023-03-01T05:34:41;-4.50;98.70
23591;DHT22;11973;52.098;7.582;2023-03-01T05:37:07;-4.50;98.70
23591;DHT22;11973;52.098;7.582;2023-03-01T05:39:34;-4.50;98.70
23591;DHT22;11973;52.098;7.582;2023-03-01T05:42:00;-4.60;98.60
23591;DHT22;11973;52.098;7.582;2023-03-01T05:44:28;-4.60;98.70
23591;DHT22;11973;52.098;7.582;2023-03-01T05:46:54;-4.60;98.70
23591;DHT22;11973;52.098;7.582;2023-03-01T05:49:21;-4.60;98.70
23591;DHT22;11973;52.098;7.582;2023-03-01T05:51:51;-4.60;98.70
23591;DHT22;11973;52.098;7.582;2023-03-01T05:54:21;-4.60;98.70
23591;DHT22;11973;52.098;7.582;2023-03-01T05:56:47;-4.70;98.70
23591;DHT22;11973;52.098;7.582;2023-03-01T05:59:13;-4.60;98.70
23591;DHT22;11973;52.098;7.582;2023-03-01T06:01:40;-4.70;98.70
23591;DHT22;11973;52.098;7.582;2023-03-01T06:04:06;-4.70;98.70
23591;DHT22;11973;52.098;7.582;2023-03-01T06:06:36;-4.70;98.80
23591;DHT22;11973;52.098;7.582;2023-03-01T06:09:04;-4.70;98.80
23591;DHT22;11973;52.098;7.582;2023-03-01T06:11:30;-4.70;98.80
23591;DHT22;11973;52.098;7.582;2023-03-01T06:13:55;-4.70;98.80
23591;DHT22;11973;52.098;7.582;2023-03-01T06:16:21;-4.70;98.80
23591;DHT22;11973;52.098;7.582;2023-03-01T06:18:47;-4.70;98.80
23591;DHT22;11973;52.098;7.582;2023-03-01T06:21:12;-4.70;98.80
23591;DHT22;11973;52.098;7.582;2023-03-01T06:23:39;-4.70;98.80
23591;DHT22;11973;52.098;7.582;2023-03-01T06:26:06;-4.70;98.80
23591;DHT22;11973;52.098;7.582;2023-03-01T06:28:32;-4.70;98.90
23591;DHT22;11973;52.098;7.582;2023-03-01T06:30:58;-4.70;98.90
23591;DHT22;11973;52.098;7.582;2023-03-01T06:33:23;-4.70;99.00
23591;DHT22;11973;52.098;7.582;2023-03-01T06:35:50;-4.60;99.10
23591;DHT22;11973;52.098;7.582;2023-03-01T06:38:17;-4.70;99.00
23591;DHT22;11973;52.098;7.582;2023-03-01T06:40:44;-4.70;99.10
23591;DHT22;11973;52.098;7.582;2023-03-01T06:43:10;-4.70;99.10
23591;DHT22;11973;52.098;7.582;2023-03-01T06:45:37;-4.60;99.20
23591;DHT22;11973;52.098;7.582;2023-03-01T06:48:06;-4.60;99.30
23591;DHT22;11973;52.098;7.582;2023-03-01T06:50:33;-4.60;99.30
23591;DHT22;11973;52.098;7.582;2023-03-01T06:52:59;-4.60;99.30
23591;DHT22;11973;52.098;7.582;2023-03-01T06:55:25;-4.50;99.40
23591;DHT22;11973;52.098;7.582;2023-03-01T06:57:58;-4.50;99.40
23591;DHT22;11973;52.098;7.582;2023-03-01T07:00:25;-4.50;99.40
23591;DHT22;11973;52.098;7.582;2023-03-01T07:02:51;-4.40;99.60
23591;DHT22;11973;52.098;7.582;2023-03-01T07:05:17;-4.50;99.60
23591;DHT22;11973;52.098;7.582;2023-03-01T07:07:43;-4.40;99.70
23591;DHT22;11973;52.098;7.582;2023-03-01T07:10:09;-4.40;99.80
23591;DHT22;11973;52.098;7.582;2023-03-01T07:12:35;-4.30;99.90
23591;DHT22;11973;52.098;7.582;2023-03-01T07:15:01;-4.30;99.90
23591;DHT22;11973;52.098;7.582;2023-03-01T07:17:27;-4.30;99.90
23591;DHT22;11973;52.098;7.582;2023-03-01T07:19:53;-4.20;99.90
23591;DHT22;11973;52.098;7.582;2023-03-01T07:22:18;-4.20;99.90
23591;DHT22;11973;52.098;7.582;2023-03-01T07:24:44;-4.10;99.90
23591;DHT22;11973;52.098;7.582;2023-03-01T07:27:10;-4.10;99.90
23591;DHT22;11973;52.098;7.582;2023-03-01T07:29:36;-4.00;99.90
23591;DHT22;11973;52.098;7.582;2023-03-01T07:32:02;-3.90;99.90
23591;DHT22;11973;52.098;7.582;2023-03-01T07:34:28;-3.90;99.90
23591;DHT22;11973;52.098;7.582;2023-03-01T07:36:54;-3.80;99.90
23591;DHT22;11973;52.098;7.582;2023-03-01T07:39:20;-3.80;99.90
23591;DHT22;11973;52.098;7.582;2023-03-01T07:41:45;-3.70;99.90
23591;DHT22;11973;52.098;7.582;2023-03-01T07:44:11;-3.60;99.90
23591;DHT22;11973;52.098;7.582;2023-03-01T07:46:37;-3.60;99.90
23591;DHT22;11973;52.098;7.582;2023-03-01T07:49:02;-3.50;99.90
23591;DHT22;11973;52.098;7.582;2023-03-01T07:51:30;-3.40;99.90
23591;DHT22;11973;52.098;7.582;2023-03-01T07:53:55;-3.30;99.90
23591;DHT22;11973;52.098;7.582;2023-03-01T07:56:21;-3.30;99.90
23591;DHT22;11973;52.098;7.582;2023-03-01T07:58:47;-3.20;99.90
23591;DHT22;11973;52.098;7.582;2023-03-01T08:01:19;-3.10;99.90
23591;DHT22;11973;52.098;7.582;2023-03-01T08:03:45;-3.00;99.90
23591;DHT22;11973;52.098;7.582;2023-03-01T08:06:12;-2.90;99.90
23591;DHT22;11973;52.098;7.582;2023-03-01T08:08:38;-2.80;99.90
23591;DHT22;11973;52.098;7.582;2023-03-01T08:11:05;-2.70;99.90
23591;DHT22;11973;52.098;7.582;2023-03-01T08:13:32;-2.60;99.90
23591;DHT22;11973;52.098;7.582;2023-03-01T08:16:05;-2.50;99.90
23591;DHT22;11973;52.098;7.582;2023-03-01T08:18:31;-2.40;99.90
23591;DHT22;11973;52.098;7.582;2023-03-01T08:21:04;-2.30;99.90
23591;DHT22;11973;52.098;7.582;2023-03-01T08:23:31;-2.20;99.90
23591;DHT22;11973;52.098;7.582;2023-03-01T08:26:23;-2.10;99.90
23591;DHT22;11973;52.098;7.582;2023-03-01T08:28:49;-2.00;99.90
23591;DHT22;11973;52.098;7.582;2023-03-01T08:31:22;-1.90;99.90
23591;DHT22;11973;52.098;7.582;2023-03-01T08:33:50;-1.80;99.90
23591;DHT22;11973;52.098;7.582;2023-03-01T08:36:21;-1.70;99.90
23591;DHT22;11973;52.098;7.582;2023-03-01T08:38:46;-1.60;99.90
23591;DHT22;11973;52.098;7.582;2023-03-01T08:41:12;-1.60;99.90
23591;DHT22;11973;52.098;7.582;2023-03-01T08:43:38;-1.50;99.90
23591;DHT22;11973;52.098;7.582;2023-03-01T08:46:04;-1.40;99.90
23591;DHT22;11973;52.098;7.582;2023-03-01T08:48:30;-1.30;99.90
23591;DHT22;11973;52.098;7.582;2023-03-01T08:50:55;-1.20;99.90
23591;DHT22;11973;52.098;7.582;2023-03-01T08:53:21;-1.10;99.90
23591;DHT22;11973;52.098;7.582;2023-03-01T08:55:47;-1.00;99.90
23591;DHT22;11973;52.098;7.582;2023-03-01T08:58:13;-0.90;99.90
23591;DHT22;11973;52.098;7.582;2023-03-01T09:00:38;-0.90;99.90
23591;DHT22;11973;52.098;7.582;2023-03-01T09:03:05;-0.80;99.90
23591;DHT22;11973;52.098;7.582;2023-03-01T09:05:32;-0.70;99.90
23591;DHT22;11973;52.098;7.582;2023-03-01T09:07:58;-0.60;99.90
23591;DHT22;11973;52.098;7.582;2023-03-01T09:10:24;-0.50;99.90
23591;DHT22;11973;52.098;7.582;2023-03-01T09:12:51;-0.50;99.90
23591;DHT22;11973;52.098;7.582;2023-03-01T09:15:16;-0.40;99.90
23591;DHT22;11973;52.098;7.582;2023-03-01T09:17:42;-0.30;99.90
23591;DHT22;11973;52.098;7.582;2023-03-01T09:20:09;-0.20;99.90
23591;DHT22;11973;52.098;7.582;2023-03-01T09:22:34;-0.20;99.90
23591;DHT22;11973;52.098;7.582;2023-03-01T09:25:00;-0.10;99.90
23591;DHT22;11973;52.098;7.582;2023-03-01T09:27:26;0.00;99.90
23591;DHT22;11973;52.098;7.582;2023-03-01T09:29:52;0.10;99.90
23591;DHT22;11973;52.098;7.582;2023-03-01T09:32:17;0.20;99.90
23591;DHT22;11973;52.098;7.582;2023-03-01T09:34:43;0.30;99.90
23591;DHT22;11973;52.098;7.582;2023-03-01T09:37:31;0.30;99.90
23591;DHT22;11973;52.098;7.582;2023-03-01T09:39:57;0.40;99.90
23591;DHT22;11973;52.098;7.582;2023-03-01T09:42:23;0.50;99.90
23591;DHT22;11973;52.098;7.582;2023-03-01T09:45:03;0.50;99.90
23591;DHT22;11973;52.098;7.582;2023-03-01T09:47:31;0.60;99.90
23591;DHT22;11973;52.098;7.582;2023-03-01T09:52:36;0.80;99.90
23591;DHT22;11973;52.098;7.582;2023-03-01T09:55:10;0.80;99.90
23591;DHT22;11973;52.098;7.582;2023-03-01T09:57:49;0.90;99.90
23591;DHT22;11973;52.098;7.582;2023-03-01T10:03:34;1.10;99.90
23591;DHT22;11973;52.098;7.582;2023-03-01T10:06:10;1.20;99.90
23591;DHT22;11973;52.098;7.582;2023-03-01T10:08:58;1.20;99.90
23591;DHT22;11973;52.098;7.582;2023-03-01T10:11:28;1.30;99.90
23591;DHT22;11973;52.098;7.582;2023-03-01T10:14:03;1.30;99.90
23591;DHT22;11973;52.098;7.582;2023-03-01T10:19:21;1.50;99.90
23591;DHT22;11973;52.098;7.582;2023-03-01T10:21:49;1.60;99.90
23591;DHT22;11973;52.098;7.582;2023-03-01T10:24:18;1.60;99.90
23591;DHT22;11973;52.098;7.582;2023-03-01T10:26:55;1.70;99.90
23591;DHT22;11973;52.098;7.582;2023-03-01T10:29:37;1.80;99.90
23591;DHT22;11973;52.098;7.582;2023-03-01T10:32:05;1.80;99.90
23591;DHT22;11973;52.098;7.582;2023-03-01T10:34:35;1.90;99.90
23591;DHT22;11973;52.098;7.582;2023-03-01T10:37:11;1.90;99.90
23591;DHT22;11973;52.098;7.582;2023-03-01T10:39:36;2.00;99.90
23591;DHT22;11973;52.098;7.582;2023-03-01T10:42:20;2.10;99.90
23591;DHT22;11973;52.098;7.582;2023-03-01T10:44:48;2.10;99.90
23591;DHT22;11973;52.098;7.582;2023-03-01T10:47:20;2.10;99.90
23591;DHT22;11973;52.098;7.582;2023-03-01T10:52:20;2.20;99.90
23591;DHT22;11973;52.098;7.582;2023-03-01T10:55:42;2.20;99.90
23591;DHT22;11973;52.098;7.582;2023-03-01T10:57:43;2.30;99.90
23591;DHT22;11973;52.098;7.582;2023-03-01T11:00:52;2.30;99.90
23591;DHT22;11973;52.098;7.582;2023-03-01T11:03:26;2.40;99.90
23591;DHT22;11973;52.098;7.582;2023-03-01T11:08:37;2.40;99.90
23591;DHT22;11973;52.098;7.582;2023-03-01T11:13:32;2.50;99.90
23591;DHT22;11973;52.098;7.582;2023-03-01T11:16:07;2.60;99.90
23591;DHT22;11973;52.098;7.582;2023-03-01T11:18:35;2.60;99.90
23591;DHT22;11973;52.098;7.582;2023-03-01T11:21:01;2.70;99.90
23591;DHT22;11973;52.098;7.582;2023-03-01T11:23:29;2.70;99.90
23591;DHT22;11973;52.098;7.582;2023-03-01T11:26:05;2.70;99.90
23591;DHT22;11973;52.098;7.582;2023-03-01T11:28:33;2.80;99.90
23591;DHT22;11973;52.098;7.582;2023-03-01T11:31:07;2.80;99.90
23591;DHT22;11973;52.098;7.582;2023-03-01T11:33:53;2.80;99.90
23591;DHT22;11973;52.098;7.582;2023-03-01T11:36:43;2.90;99.90
23591;DHT22;11973;52.098;7.582;2023-03-01T11:39:31;2.90;99.90
23591;DHT22;11973;52.098;7.582;2023-03-01T11:42:20;3.00;99.90
23591;DHT22;11973;52.098;7.582;2023-03-01T11:44:52;3.00;99.90
23591;DHT22;11973;52.098;7.582;2023-03-01T11:58:11;3.30;99.90
23591;DHT22;11973;52.098;7.582;2023-03-01T12:00:43;3.30;99.90
23591;DHT22;11973;52.098;7.582;2023-03-01T12:03:44;3.40;99.90
23591;DHT22;11973;52.098;7.582;2023-03-01T12:17:07;3.60;99.90
23591;DHT22;11973;52.098;7.582;2023-03-01T12:22:44;3.70;99.90
23591;DHT22;11973;52.098;7.582;2023-03-01T12:25:25;3.80;99.90
23591;DHT22;11973;52.098;7.582;2023-03-01T12:38:50;4.10;99.90
23591;DHT22;11973;52.098;7.582;2023-03-01T12:49:38;4.30;99.90
23591;DHT22;11973;52.098;7.582;2023-03-01T12:54:41;4.50;99.90
23591;DHT22;11973;52.098;7.582;2023-03-01T12:57:37;4.50;99.90
23591;DHT22;11973;52.098;7.582;2023-03-01T13:02:59;4.60;99.90
23591;DHT22;11973;52.098;7.582;2023-03-01T13:11:21;4.80;99.90
23591;DHT22;11973;52.098;7.582;2023-03-01T13:13:48;4.90;99.90
23591;DHT22;11973;52.098;7.582;2023-03-01T13:19:12;5.00;99.90
23591;DHT22;11973;52.098;7.582;2023-03-01T13:21:39;5.10;99.90
23591;DHT22;11973;52.098;7.582;2023-03-01T13:24:24;5.10;99.90
23591;DHT22;11973;52.098;7.582;2023-03-01T13:27:18;5.20;99.90
23591;DHT22;11973;52.098;7.582;2023-03-01T13:32:33;5.30;99.90
23591;DHT22;11973;52.098;7.582;2023-03-01T13:35:02;5.30;99.90
23591;DHT22;11973;52.098;7.582;2023-03-01T13:37:34;5.30;99.90
23591;DHT22;11973;52.098;7.582;2023-03-01T13:42:48;5.40;99.90
23591;DHT22;11973;52.098;7.582;2023-03-01T13:45:21;5.50;99.90
23591;DHT22;11973;52.098;7.582;2023-03-01T13:47:52;5.50;99.90
23591;DHT22;11973;52.098;7.582;2023-03-01T13:50:23;5.50;99.90
23591;DHT22;11973;52.098;7.582;2023-03-01T13:52:54;5.60;99.90
23591;DHT22;11973;52.098;7.582;2023-03-01T13:55:42;5.60;99.90
23591;DHT22;11973;52.098;7.582;2023-03-01T13:58:44;5.60;99.90
23591;DHT22;11973;52.098;7.582;2023-03-01T14:03:50;5.80;99.90
23591;DHT22;11973;52.098;7.582;2023-03-01T14:06:20;5.90;99.90
23591;DHT22;11973;52.098;7.582;2023-03-01T14:08:48;6.10;99.90
23591;DHT22;11973;52.098;7.582;2023-03-01T14:19:33;6.70;99.90
23591;DHT22;11973;52.098;7.582;2023-03-01T14:22:21;6.80;99.90
23591;DHT22;11973;52.098;7.582;2023-03-01T14:24:54;6.90;99.90
23591;DHT22;11973;52.098;7.582;2023-03-01T14:27:20;6.90;99.90
23591;DHT22;11973;52.098;7.582;2023-03-01T14:30:02;6.90;99.90
23591;DHT22;11973;52.098;7.582;2023-03-01T14:32:30;6.90;99.90
23591;DHT22;11973;52.098;7.582;2023-03-01T14:34:57;6.90;99.90
23591;DHT22;11973;52.098;7.582;2023-03-01T14:37:32;6.90;99.90
23591;DHT22;11973;52.098;7.582;2023-03-01T14:40:00;6.90;99.90
23591;DHT22;11973;52.098;7.582;2023-03-01T14:42:34;6.80;99.90
23591;DHT22;11973;52.098;7.582;2023-03-01T14:45:02;6.80;99.90
23591;DHT22;11973;52.098;7.582;2023-03-01T14:50:02;6.80;99.90
23591;DHT22;11973;52.098;7.582;2023-03-01T14:52:34;6.90;99.90
23591;DHT22;11973;52.098;7.582;2023-03-01T14:55:03;7.10;99.90
23591;DHT22;11973;52.098;7.582;2023-03-01T14:57:30;7.40;99.90
23591;DHT22;11973;52.098;7.582;2023-03-01T15:00:02;7.90;99.90
23591;DHT22;11973;52.098;7.582;2023-03-01T15:02:31;8.50;99.90
23591;DHT22;11973;52.098;7.582;2023-03-01T15:05:00;9.10;99.90
23591;DHT22;11973;52.098;7.582;2023-03-01T15:07:30;9.70;99.90
23591;DHT22;11973;52.098;7.582;2023-03-01T15:09:58;10.20;99.90
23591;DHT22;11973;52.098;7.582;2023-03-01T15:14:53;11.10;99.90
23591;DHT22;11973;52.098;7.582;2023-03-01T15:19:57;11.80;99.90
23591;DHT22;11973;52.098;7.582;2023-03-01T15:22:25;12.10;99.90
23591;DHT22;11973;52.098;7.582;2023-03-01T15:24:52;12.30;99.90
23591;DHT22;11973;52.098;7.582;2023-03-01T15:27:21;12.50;99.90
23591;DHT22;11973;52.098;7.582;2023-03-01T15:30:05;12.80;99.90
23591;DHT22;11973;52.098;7.582;2023-03-01T15:32:36;13.00;99.90
23591;DHT22;11973;52.098;7.582;2023-03-01T15:35:38;13.20;99.90
23591;DHT22;11973;52.098;7.582;2023-03-01T15:40:53;13.70;99.90
23591;DHT22;11973;52.098;7.582;2023-03-01T15:46:16;14.10;99.90
23591;DHT22;11973;52.098;7.582;2023-03-01T15:48:47;14.30;99.90
23591;DHT22;11973;52.098;7.582;2023-03-01T15:51:15;14.40;99.90
23591;DHT22;11973;52.098;7.582;2023-03-01T15:53:45;14.50;99.90
23591;DHT22;11973;52.098;7.582;2023-03-01T15:56:13;14.50;99.90
23591;DHT22;11973;52.098;7.582;2023-03-01T15:58:39;14.40;99.90
23591;DHT22;11973;52.098;7.582;2023-03-01T16:01:12;14.00;99.90
23591;DHT22;11973;52.098;7.582;2023-03-01T16:03:38;13.50;99.90
23591;DHT22;11973;52.098;7.582;2023-03-01T16:06:05;12.80;99.90
23591;DHT22;11973;52.098;7.582;2023-03-01T16:08:30;12.20;99.90
23591;DHT22;11973;52.098;7.582;2023-03-01T16:10:56;11.70;99.90
23591;DHT22;11973;52.098;7.582;2023-03-01T16:13:22;11.20;99.50
23591;DHT22;11973;52.098;7.582;2023-03-01T16:15:49;11.00;99.50
23591;DHT22;11973;52.098;7.582;2023-03-01T16:18:14;10.90;99.70
23591;DHT22;11973;52.098;7.582;2023-03-01T16:20:40;11.00;99.70
23591;DHT22;11973;52.098;7.582;2023-03-01T16:23:07;11.00;99.80
23591;DHT22;11973;52.098;7.582;2023-03-01T16:25:34;10.80;99.90
23591;DHT22;11973;52.098;7.582;2023-03-01T16:28:00;10.60;99.90
23591;DHT22;11973;52.098;7.582;2023-03-01T16:30:30;10.20;99.90
23591;DHT22;11973;52.098;7.582;2023-03-01T16:32:56;9.80;99.90
23591;DHT22;11973;52.098;7.582;2023-03-01T16:35:22;9.40;99.90
23591;DHT22;11973;52.098;7.582;2023-03-01T16:37:49;9.00;99.80
23591;DHT22;11973;52.098;7.582;2023-03-01T16:40:24;8.60;99.60
23591;DHT22;11973;52.098;7.582;2023-03-01T16:42:51;8.30;99.10
23591;DHT22;11973;52.098;7.582;2023-03-01T16:45:18;8.00;99.30
23591;DHT22;11973;52.098;7.582;2023-03-01T16:47:45;7.70;99.20
23591;DHT22;11973;52.098;7.582;2023-03-01T16:50:11;7.40;99.00
23591;DHT22;11973;52.098;7.582;2023-03-01T16:52:37;7.10;98.90
23591;DHT22;11973;52.098;7.582;2023-03-01T16:55:05;6.90;98.80
23591;DHT22;11973;52.098;7.582;2023-03-01T16:57:34;6.60;98.60
23591;DHT22;11973;52.098;7.582;2023-03-01T16:59:59;6.40;98.40
23591;DHT22;11973;52.098;7.582;2023-03-01T17:02:25;6.20;98.20
23591;DHT22;11973;52.098;7.582;2023-03-01T17:04:53;6.00;98.00
23591;DHT22;11973;52.098;7.582;2023-03-01T17:07:19;5.90;98.00
23591;DHT22;11973;52.098;7.582;2023-03-01T17:09:45;5.70;97.80
23591;DHT22;11973;52.098;7.582;2023-03-01T17:12:14;5.50;97.60
23591;DHT22;11973;52.098;7.582;2023-03-01T17:14:40;5.40;97.90
23591;DHT22;11973;52.098;7.582;2023-03-01T17:17:10;5.20;97.50
23591;DHT22;11973;52.098;7.582;2023-03-01T17:19:37;5.10;97.30
23591;DHT22;11973;52.098;7.582;2023-03-01T17:22:09;5.00;97.30
23591;DHT22;11973;52.098;7.582;2023-03-01T17:24:37;4.80;97.20
23591;DHT22;11973;52.098;7.582;2023-03-01T17:27:04;4.70;97.20
23591;DHT22;11973;52.098;7.582;2023-03-01T17:29:30;4.60;97.10
23591;DHT22;11973;52.098;7.582;2023-03-01T17:31:56;4.50;97.10
23591;DHT22;11973;52.098;7.582;2023-03-01T17:34:23;4.40;97.00
23591;DHT22;11973;52.098;7.582;2023-03-01T17:36:49;4.20;96.90
23591;DHT22;11973;52.098;7.582;2023-03-01T17:39:17;4.20;96.80
23591;DHT22;11973;52.098;7.582;2023-03-01T17:41:46;4.10;96.70
23591;DHT22;11973;52.098;7.582;2023-03-01T17:44:11;4.00;96.70
23591;DHT22;11973;52.098;7.582;2023-03-01T17:46:37;3.80;96.60
23591;DHT22;11973;52.098;7.582;2023-03-01T17:49:03;3.80;96.70
23591;DHT22;11973;52.098;7.582;2023-03-01T17:51:31;3.70;96.70
23591;DHT22;11973;52.098;7.582;2023-03-01T17:53:57;3.60;96.60
23591;DHT22;11973;52.098;7.582;2023-03-01T17:56:22;3.50;96.50
23591;DHT22;11973;52.098;7.582;2023-03-01T17:58:49;3.50;96.50
23591;DHT22;11973;52.098;7.582;2023-03-01T18:01:17;3.40;96.50
23591;DHT22;11973;52.098;7.582;2023-03-01T18:03:43;3.30;96.60
23591;DHT22;11973;52.098;7.582;2023-03-01T18:06:21;3.20;96.50
23591;DHT22;11973;52.098;7.582;2023-03-01T18:08:47;3.20;96.60
23591;DHT22;11973;52.098;7.582;2023-03-01T18:11:16;3.10;96.60
23591;DHT22;11973;52.098;7.582;2023-03-01T18:13:43;3.10;96.50
23591;DHT22;11973;52.098;7.582;2023-03-01T18:16:12;3.00;96.50
23591;DHT22;11973;52.098;7.582;2023-03-01T18:18:38;2.90;96.40
23591;DHT22;11973;52.098;7.582;2023-03-01T18:21:04;2.80;96.40
23591;DHT22;11973;52.098;7.582;2023-03-01T18:23:31;2.80;96.40
23591;DHT22;11973;52.098;7.582;2023-03-01T18:26:03;2.80;96.40
23591;DHT22;11973;52.098;7.582;2023-03-01T18:28:31;2.60;96.40
23591;DHT22;11973;52.098;7.582;2023-03-01T18:30:59;2.50;96.40
23591;DHT22;11973;52.098;7.582;2023-03-01T18:33:25;2.50;96.40
23591;DHT22;11973;52.098;7.582;2023-03-01T18:35:51;2.40;96.40
23591;DHT22;11973;52.098;7.582;2023-03-01T18:38:17;2.40;96.40
23591;DHT22;11973;52.098;7.582;2023-03-01T18:40:43;2.30;96.40
23591;DHT22;11973;52.098;7.582;2023-03-01T18:43:10;2.30;96.40
23591;DHT22;11973;52.098;7.582;2023-03-01T18:45:36;2.20;96.40
23591;DHT22;11973;52.098;7.582;2023-03-01T18:48:02;2.20;96.40
23591;DHT22;11973;52.098;7.582;2023-03-01T18:50:29;2.10;96.40
23591;DHT22;11973;52.098;7.582;2023-03-01T18:52:55;2.00;96.40
23591;DHT22;11973;52.098;7.582;2023-03-01T18:55:20;2.00;96.50
23591;DHT22;11973;52.098;7.582;2023-03-01T18:57:46;1.90;96.40
23591;DHT22;11973;52.098;7.582;2023-03-01T19:00:12;1.80;96.40
23591;DHT22;11973;52.098;7.582;2023-03-01T19:02:38;1.80;96.50
23591;DHT22;11973;52.098;7.582;2023-03-01T19:05:04;1.80;96.50
23591;DHT22;11973;52.098;7.582;2023-03-01T19:07:30;1.70;96.50
23591;DHT22;11973;52.098;7.582;2023-03-01T19:09:57;1.60;96.50
23591;DHT22;11973;52.098;7.582;2023-03-01T19:12:23;1.60;96.40
23591;DHT22;11973;52.098;7.582;2023-03-01T19:14:49;1.60;96.50
23591;DHT22;11973;52.098;7.582;2023-03-01T19:17:15;1.50;96.60
23591;DHT22;11973;52.098;7.582;2023-03-01T19:19:41;1.50;96.60
23591;DHT22;11973;52.098;7.582;2023-03-01T19:22:07;1.40;96.60
23591;DHT22;11973;52.098;7.582;2023-03-01T19:24:34;1.40;96.70
23591;DHT22;11973;52.098;7.582;2023-03-01T19:27:00;1.40;96.70
23591;DHT22;11973;52.098;7.582;2023-03-01T19:29:26;1.40;96.70
23591;DHT22;11973;52.098;7.582;2023-03-01T19:31:52;1.30;96.70
23591;DHT22;11973;52.098;7.582;2023-03-01T19:34:18;1.40;96.80
23591;DHT22;11973;52.098;7.582;2023-03-01T19:36:43;1.20;96.70
23591;DHT22;11973;52.098;7.582;2023-03-01T19:39:11;1.20;96.80
23591;DHT22;11973;52.098;7.582;2023-03-01T19:41:37;1.10;96.80
23591;DHT22;11973;52.098;7.582;2023-03-01T19:44:04;1.10;96.80
23591;DHT22;11973;52.098;7.582;2023-03-01T19:46:31;1.10;96.90
23591;DHT22;11973;52.098;7.582;2023-03-01T19:48:57;1.00;96.90
23591;DHT22;11973;52.098;7.582;2023-03-01T19:51:26;1.00;96.90
23591;DHT22;11973;52.098;7.582;2023-03-01T19:53:52;1.00;96.90
23591;DHT22;11973;52.098;7.582;2023-03-01T19:56:18;1.00;97.00
23591;DHT22;11973;52.098;7.582;2023-03-01T19:58:44;1.00;97.00
23591;DHT22;11973;52.098;7.582;2023-03-01T20:01:17;0.90;97.00
23591;DHT22;11973;52.098;7.582;2023-03-01T20:03:43;0.90;97.00
23591;DHT22;11973;52.098;7.582;2023-03-01T20:06:12;0.90;97.10
23591;DHT22;11973;52.098;7.582;2023-03-01T20:08:38;0.80;97.00
23591;DHT22;11973;52.098;7.582;2023-03-01T20:11:06;0.80;97.00
23591;DHT22;11973;52.098;7.582;2023-03-01T20:13:33;0.80;97.10
23591;DHT22;11973;52.098;7.582;2023-03-01T20:15:59;0.70;97.00
23591;DHT22;11973;52.098;7.582;2023-03-01T20:18:25;0.70;97.40
23591;DHT22;11973;52.098;7.582;2023-03-01T20:20:51;0.70;97.10
23591;DHT22;11973;52.098;7.582;2023-03-01T20:23:18;0.70;97.40
23591;DHT22;11973;52.098;7.582;2023-03-01T20:25:45;0.60;97.10
23591;DHT22;11973;52.098;7.582;2023-03-01T20:28:14;0.60;97.10
23591;DHT22;11973;52.098;7.582;2023-03-01T20:30:42;0.60;97.20
23591;DHT22;11973;52.098;7.582;2023-03-01T20:33:08;0.50;97.00
23591;DHT22;11973;52.098;7.582;2023-03-01T20:35:34;0.50;97.10
23591;DHT22;11973;52.098;7.582;2023-03-01T20:38:01;0.50;97.10
23591;DHT22;11973;52.098;7.582;2023-03-01T20:40:27;0.40;97.10
23591;DHT22;11973;52.098;7.582;2023-03-01T20:42:56;0.40;97.10
23591;DHT22;11973;52.098;7.582;2023-03-01T20:45:23;0.40;97.10
23591;DHT22;11973;52.098;7.582;2023-03-01T20:47:50;0.30;97.10
23591;DHT22;11973;52.098;7.582;2023-03-01T20:50:17;0.30;97.10
23591;DHT22;11973;52.098;7.582;2023-03-01T20:52:43;0.30;97.10
23591;DHT22;11973;52.098;7.582;2023-03-01T20:55:09;0.20;97.20
23591;DHT22;11973;52.098;7.582;2023-03-01T20:57:36;0.20;97.30
23591;DHT22;11973;52.098;7.582;2023-03-01T21:00:04;0.20;97.30
23591;DHT22;11973;52.098;7.582;2023-03-01T21:02:30;0.20;97.40
23591;DHT22;11973;52.098;7.582;2023-03-01T21:04:57;0.10;97.40
23591;DHT22;11973;52.098;7.582;2023-03-01T21:07:22;0.10;97.70
23591;DHT22;11973;52.098;7.582;2023-03-01T21:09:48;0.10;97.40
23591;DHT22;11973;52.098;7.582;2023-03-01T21:12:14;0.10;97.50
23591;DHT22;11973;52.098;7.582;2023-03-01T21:14:40;0.00;97.40
23591;DHT22;11973;52.098;7.582;2023-03-01T21:17:10;0.00;97.40
23591;DHT22;11973;52.098;7.582;2023-03-01T21:19:39;0.00;97.80
23591;DHT22;11973;52.098;7.582;2023-03-01T21:22:06;0.00;97.50
23591;DHT22;11973;52.098;7.582;2023-03-01T21:24:32;0.00;97.50
23591;DHT22;11973;52.098;7.582;2023-03-01T21:26:57;-0.10;97.50
23591;DHT22;11973;52.098;7.582;2023-03-01T21:29:24;-0.10;97.50
23591;DHT22;11973;52.098;7.582;2023-03-01T21:31:49;-0.10;97.50
23591;DHT22;11973;52.098;7.582;2023-03-01T21:34:15;-0.10;97.60
23591;DHT22;11973;52.098;7.582;2023-03-01T21:36:41;-0.20;97.60
23591;DHT22;11973;52.098;7.582;2023-03-01T21:39:07;-0.20;97.70
23591;DHT22;11973;52.098;7.582;2023-03-01T21:41:35;-0.20;97.70
23591;DHT22;11973;52.098;7.582;2023-03-01T21:44:02;-0.20;97.70
23591;DHT22;11973;52.098;7.582;2023-03-01T21:46:30;-0.20;97.80
23591;DHT22;11973;52.098;7.582;2023-03-01T21:48:57;-0.10;97.90
23591;DHT22;11973;52.098;7.582;2023-03-01T21:51:25;-0.20;97.80
23591;DHT22;11973;52.098;7.582;2023-03-01T21:53:53;-0.30;97.80
23591;DHT22;11973;52.098;7.582;2023-03-01T21:56:22;-0.30;97.80
23591;DHT22;11973;52.098;7.582;2023-03-01T21:58:49;-0.30;97.90
23591;DHT22;11973;52.098;7.582;2023-03-01T22:01:17;-0.30;97.80
23591;DHT22;11973;52.098;7.582;2023-03-01T22:04:01;-0.30;97.80
23591;DHT22;11973;52.098;7.582;2023-03-01T22:06:46;-0.30;97.90
23591;DHT22;11973;52.098;7.582;2023-03-01T22:09:14;-0.40;97.80
23591;DHT22;11973;52.098;7.582;2023-03-01T22:11:43;-0.40;97.80
23591;DHT22;11973;52.098;7.582;2023-03-01T22:14:10;-0.40;98.20
23591;DHT22;11973;52.098;7.582;2023-03-01T22:16:37;-0.40;97.80
23591;DHT22;11973;52.098;7.582;2023-03-01T22:19:04;-0.50;97.80
23591;DHT22;11973;52.098;7.582;2023-03-01T22:21:31;-0.50;98.10